CYBG

CFB Bagotville Airport

Bagotville, Quebec, Canada
METAR CYBG 250600Z 27010KT 25SM BKN100 12/04 A2992 RMK AC6 SLP133
Observed Flight Rules
Jun-25 @ 06:00 UTC (21 minutes ago) Visual Flight Rules
Wind Visibility Clouds
270° at 10 knots 25 miles
  • Broken at 10,000' AGL
Temperatures Readings
Current 12°C / 54°F
Dewpoint 4°C / 39°F
Humidity 58%
Altimeter 29.92" Hg
Pressure 1013.3 hPa
Elevation 159
METAR CYBG 250600Z 27010KT 25SM BKN100 12/04 A2992 RMK AC6 SLP133
Observed Flight Rules
Jun-25 @ 06:00 UTC
(21 minutes ago)
VFR
Wind Visibility
270° at 10 knots 25 miles
Clouds
  • Broken at 10,000' AGL
Temperature Dewpoint
12°C / 54°F 4°C / 39°F
Humidity Altimeter Pressure
58% 29.92" Hg 1013.3 hPa